Time;durP1;ratioP1;P1;durP2;ratioP2;P2;SDS_P1;SDS_P2;PMS_P1;PMS_P2;Temp;Humidity;BMP_temperature;BMP_pressure;BME280_temperature;BME280_humidity;BME280_pressure;Samples;Min_cycle;Max_cycle;Signal;HPM_P1;HPM_P2
2024/01/07 00:00:36;;;;;;;17.60;7.83;;;;;;;;;;5092846;28;20202;-85
2024/01/07 00:03:04;;;;;;;13.17;6.50;;;;;;;;;;5093162;28;20221;-85
2024/01/07 00:05:33;;;;;;;14.77;7.27;;;;;;;;;;5093852;28;20271;-84
2024/01/07 00:08:04;;;;;;;9.73;5.37;;;;;;;;;;5093174;28;20249;-85
2024/01/07 00:10:33;;;;;;;10.37;6.40;;;;;;;;;;5092234;28;20210;-84
2024/01/07 00:13:01;;;;;;;15.67;6.30;;;;;;;;;;5093653;28;20209;-84
2024/01/07 00:15:29;;;;;;;10.57;5.77;;;;;;;;;;5093417;28;20287;-84
2024/01/07 00:17:59;;;;;;;10.40;5.67;;;;;;;;;;5092618;28;20224;-84
2024/01/07 00:20:27;;;;;;;5.17;4.63;;;;;;;;;;5093267;28;20194;-84
2024/01/07 00:22:56;;;;;;;11.80;5.00;;;;;;;;;;5094156;28;20289;-84
2024/01/07 00:25:27;;;;;;;12.70;6.17;;;;;;;;;;5096790;28;20210;-85
2024/01/07 00:28:05;;;;;;;11.13;6.00;;;;;;;;;;5102607;28;20213;-84
2024/01/07 00:30:37;;;;;;;9.07;5.87;;;;;;;;;;5103395;28;20211;-86
2024/01/07 00:33:12;;;;;;;8.83;4.33;;;;;;;;;;5106117;28;20205;-84
2024/01/07 00:35:40;;;;;;;10.93;5.03;;;;;;;;;;5111833;28;20205;-85
2024/01/07 00:38:11;;;;;;;5.37;4.77;;;;;;;;;;5108611;28;20198;-85
2024/01/07 00:40:42;;;;;;;11.50;5.33;;;;;;;;;;5096533;28;20198;-86
2024/01/07 00:43:24;;;;;;;8.10;5.00;;;;;;;;;;5098953;28;20218;-86
2024/01/07 00:46:08;;;;;;;13.10;5.43;;;;;;;;;;5099184;28;20196;-85
2024/01/07 00:49:07;;;;;;;5.67;5.13;;;;;;;;;;5070209;28;20217;-85
2024/01/07 00:54:40;;;;;;;9.17;5.60;;;;;;;;;;5055449;28;20210;-85
2024/01/07 00:57:12;;;;;;;11.17;5.73;;;;;;;;;;5052129;28;20618;-86
2024/01/07 00:59:45;;;;;;;9.30;5.83;;;;;;;;;;5051828;28;20195;-86
2024/01/07 01:02:12;;;;;;;11.17;5.20;;;;;;;;;;5053064;28;20199;-85
2024/01/07 01:04:45;;;;;;;8.87;5.73;;;;;;;;;;5058779;28;20773;-86
2024/01/07 01:07:13;;;;;;;8.57;5.93;;;;;;;;;;5056838;28;20203;-84
2024/01/07 01:09:46;;;;;;;8.83;5.87;;;;;;;;;;5058143;28;20215;-85
2024/01/07 01:12:25;;;;;;;14.03;6.03;;;;;;;;;;5069614;28;20271;-86
2024/01/07 01:15:17;;;;;;;11.27;6.37;;;;;;;;;;5070462;28;20199;-85
2024/01/07 01:17:58;;;;;;;13.97;6.73;;;;;;;;;;5055182;28;20214;-86
2024/01/07 01:28:53;;;;;;;15.97;8.07;;;;;;;;;;5073128;28;20207;-85
2024/01/07 01:31:24;;;;;;;12.10;7.13;;;;;;;;;;5085396;28;20749;-84
2024/01/07 01:34:06;;;;;;;12.07;7.10;;;;;;;;;;5086585;28;20238;-85
2024/01/07 01:36:37;;;;;;;11.13;6.53;;;;;;;;;;5094499;28;20262;-85
2024/01/07 01:39:05;;;;;;;12.50;7.47;;;;;;;;;;5085162;28;20249;-85
2024/01/07 01:41:38;;;;;;;12.70;5.97;;;;;;;;;;5081287;28;20208;-85
2024/01/07 01:44:22;;;;;;;16.20;7.03;;;;;;;;;;5088232;28;20191;-84
2024/01/07 01:46:50;;;;;;;8.40;5.60;;;;;;;;;;5095204;28;20303;-84
2024/01/07 01:49:37;;;;;;;16.70;7.17;;;;;;;;;;5105773;28;20193;-84
2024/01/07 01:52:11;;;;;;;14.87;5.83;;;;;;;;;;5102516;28;20229;-84
2024/01/07 01:54:41;;;;;;;12.10;6.27;;;;;;;;;;5106632;28;20207;-83
2024/01/07 01:57:23;;;;;;;11.70;6.50;;;;;;;;;;5106773;28;20194;-85
2024/01/07 01:59:53;;;;;;;8.23;5.70;;;;;;;;;;5092311;28;20220;-84
2024/01/07 02:05:10;;;;;;;93.67;33.33;;;;;;;;;;5082116;28;20202;-84
2024/01/07 02:07:39;;;;;;;12.27;6.27;;;;;;;;;;5084194;28;20202;-83
2024/01/07 02:10:07;;;;;;;16.03;8.53;;;;;;;;;;5084745;28;20211;-83
2024/01/07 02:12:38;;;;;;;20.70;8.07;;;;;;;;;;5085746;28;20230;-84
2024/01/07 02:15:06;;;;;;;11.40;6.97;;;;;;;;;;5085978;28;20194;-84
2024/01/07 02:17:41;;;;;;;11.70;6.67;;;;;;;;;;5082921;28;20206;-83
2024/01/07 02:20:15;;;;;;;13.53;8.07;;;;;;;;;;5087086;28;20190;-84
2024/01/07 02:22:46;;;;;;;16.77;9.10;;;;;;;;;;5088348;28;20187;-84
2024/01/07 02:25:16;;;;;;;11.93;7.83;;;;;;;;;;5085305;28;20209;-83
2024/01/07 02:27:43;;;;;;;10.40;6.50;;;;;;;;;;5081896;28;20202;-83
2024/01/07 02:30:14;;;;;;;12.13;7.60;;;;;;;;;;5087112;28;20210;-84
2024/01/07 02:32:42;;;;;;;16.53;7.13;;;;;;;;;;5090118;28;20303;-84
2024/01/07 02:35:10;;;;;;;12.73;7.87;;;;;;;;;;5082643;28;20652;-84
2024/01/07 02:37:40;;;;;;;15.80;7.50;;;;;;;;;;5086866;28;20194;-85
2024/01/07 02:40:16;;;;;;;26.37;10.47;;;;;;;;;;5086154;28;20212;-84
2024/01/07 02:42:43;;;;;;;27.00;10.37;;;;;;;;;;5089180;28;20220;-84
2024/01/07 02:45:14;;;;;;;12.43;7.77;;;;;;;;;;5088639;28;20282;-84
2024/01/07 02:47:47;;;;;;;21.40;9.30;;;;;;;;;;5091642;28;20278;-84
2024/01/07 02:50:14;;;;;;;12.33;7.00;;;;;;;;;;5088589;28;20217;-85
2024/01/07 02:52:41;;;;;;;8.97;6.80;;;;;;;;;;5087923;28;20282;-84
2024/01/07 02:55:09;;;;;;;16.80;8.00;;;;;;;;;;5090472;28;20199;-84
2024/01/07 02:57:40;;;;;;;14.63;7.20;;;;;;;;;;5089696;28;20209;-83
2024/01/07 03:00:10;;;;;;;14.23;7.27;;;;;;;;;;5081889;28;20183;-84
2024/01/07 03:02:38;;;;;;;12.27;6.13;;;;;;;;;;5084604;28;20617;-83
2024/01/07 03:05:07;;;;;;;13.43;7.60;;;;;;;;;;5084607;28;20187;-86
2024/01/07 03:07:41;;;;;;;10.27;7.03;;;;;;;;;;5083714;28;20214;-85
2024/01/07 03:10:11;;;;;;;13.23;8.10;;;;;;;;;;5079373;28;20220;-85
2024/01/07 03:12:40;;;;;;;14.37;6.17;;;;;;;;;;5083054;28;20317;-84
2024/01/07 03:15:14;;;;;;;7.47;5.17;;;;;;;;;;5096497;28;20218;-84
2024/01/07 03:17:40;;;;;;;7.60;5.07;;;;;;;;;;5090517;28;20645;-85
2024/01/07 03:20:10;;;;;;;6.10;3.80;;;;;;;;;;5082765;28;20222;-85
2024/01/07 03:22:38;;;;;;;11.27;5.27;;;;;;;;;;5075454;28;20198;-85
2024/01/07 03:25:05;;;;;;;6.90;4.77;;;;;;;;;;5075910;28;20566;-84
2024/01/07 03:27:35;;;;;;;9.57;6.00;;;;;;;;;;5074921;28;20199;-86
2024/01/07 03:30:08;;;;;;;15.87;5.17;;;;;;;;;;5075428;28;20277;-84
2024/01/07 03:32:35;;;;;;;7.13;4.37;;;;;;;;;;5079835;28;20230;-83
2024/01/07 03:35:03;;;;;;;6.73;4.50;;;;;;;;;;5074664;28;20206;-83
2024/01/07 03:37:30;;;;;;;10.50;3.50;;;;;;;;;;5074327;28;20194;-84
2024/01/07 03:39:57;;;;;;;4.37;2.97;;;;;;;;;;5074437;28;20661;-84
2024/01/07 03:42:27;;;;;;;3.33;2.93;;;;;;;;;;5074638;28;20224;-84
2024/01/07 03:44:55;;;;;;;6.37;3.90;;;;;;;;;;5077814;28;20220;-84
2024/01/07 03:47:23;;;;;;;12.20;3.97;;;;;;;;;;5085140;28;20340;-84
2024/01/07 03:49:51;;;;;;;5.50;3.23;;;;;;;;;;5085543;28;20214;-84
2024/01/07 03:52:20;;;;;;;7.37;4.57;;;;;;;;;;5076456;28;20786;-84
2024/01/07 03:54:48;;;;;;;4.40;3.53;;;;;;;;;;5079477;28;20706;-85
2024/01/07 03:57:15;;;;;;;4.63;4.23;;;;;;;;;;5073838;28;20202;-85
2024/01/07 03:59:42;;;;;;;8.33;4.90;;;;;;;;;;5074613;28;20221;-85
2024/01/07 04:02:11;;;;;;;4.53;4.03;;;;;;;;;;5075560;28;20220;-86
2024/01/07 04:04:40;;;;;;;8.90;4.17;;;;;;;;;;5074671;28;20245;-86
2024/01/07 04:07:16;;;;;;;7.30;4.20;;;;;;;;;;5074245;28;20241;-86
2024/01/07 04:09:44;;;;;;;10.87;4.27;;;;;;;;;;5074300;28;20297;-87
2024/01/07 04:12:12;;;;;;;4.37;3.97;;;;;;;;;;5075092;28;20653;-85
2024/01/07 04:14:39;;;;;;;5.40;4.27;;;;;;;;;;5079114;28;20203;-85
2024/01/07 04:17:08;;;;;;;12.60;3.60;;;;;;;;;;5075507;28;20198;-85
2024/01/07 04:19:37;;;;;;;3.13;2.83;;;;;;;;;;5078390;28;20222;-85
2024/01/07 04:22:07;;;;;;;4.90;3.33;;;;;;;;;;5077627;28;20293;-86
2024/01/07 04:24:34;;;;;;;4.80;3.07;;;;;;;;;;5075223;28;20234;-86
2024/01/07 04:27:02;;;;;;;3.00;2.80;;;;;;;;;;5074109;28;20202;-86
2024/01/07 04:29:32;;;;;;;5.27;2.60;;;;;;;;;;5074427;28;20191;-87
2024/01/07 04:32:02;;;;;;;3.00;2.70;;;;;;;;;;5074364;28;20631;-86
2024/01/07 04:34:30;;;;;;;7.80;3.80;;;;;;;;;;5074491;28;20195;-87
2024/01/07 04:36:58;;;;;;;26.60;11.33;;;;;;;;;;5074250;28;20202;-86
2024/01/07 04:39:32;;;;;;;11.03;6.90;;;;;;;;;;5074153;28;20195;-87
2024/01/07 04:41:59;;;;;;;5.27;3.50;;;;;;;;;;5073525;28;20187;-87
2024/01/07 04:44:26;;;;;;;3.63;3.03;;;;;;;;;;5074117;28;20198;-85
2024/01/07 04:46:56;;;;;;;3.30;3.00;;;;;;;;;;5073371;28;20246;-86
2024/01/07 04:49:24;;;;;;;3.33;2.83;;;;;;;;;;5073535;28;20210;-86
2024/01/07 04:51:52;;;;;;;6.90;4.10;;;;;;;;;;5073027;28;20256;-86
2024/01/07 04:54:20;;;;;;;7.87;4.97;;;;;;;;;;5073257;28;20206;-86
2024/01/07 04:56:49;;;;;;;7.47;4.70;;;;;;;;;;5073799;28;20217;-86
2024/01/07 04:59:16;;;;;;;4.53;4.13;;;;;;;;;;5073487;28;20198;-86
2024/01/07 05:01:45;;;;;;;4.33;3.93;;;;;;;;;;5077867;28;20561;-86
2024/01/07 05:04:13;;;;;;;8.60;5.83;;;;;;;;;;5075306;28;20199;-86
2024/01/07 05:06:41;;;;;;;8.90;5.17;;;;;;;;;;5074502;28;20191;-86
2024/01/07 05:09:09;;;;;;;11.47;4.37;;;;;;;;;;5084346;28;20702;-86
2024/01/07 05:11:41;;;;;;;9.47;6.93;;;;;;;;;;5086038;28;20199;-87
2024/01/07 05:14:12;;;;;;;13.30;6.70;;;;;;;;;;5092010;28;20222;-86
2024/01/07 05:16:39;;;;;;;8.40;5.03;;;;;;;;;;5096571;28;20218;-87
2024/01/07 05:19:07;;;;;;;10.07;7.93;;;;;;;;;;5094553;28;20219;-86
2024/01/07 05:21:34;;;;;;;18.10;9.20;;;;;;;;;;5060164;28;20213;-85
2024/01/07 05:24:02;;;;;;;9.93;5.90;;;;;;;;;;5086259;28;20234;-87
2024/01/07 05:26:31;;;;;;;6.03;5.23;;;;;;;;;;5078938;28;20202;-86
2024/01/07 05:28:59;;;;;;;18.07;6.97;;;;;;;;;;5079558;28;20655;-88
2024/01/07 05:31:29;;;;;;;10.40;5.90;;;;;;;;;;5072937;28;20667;-86
2024/01/07 05:33:57;;;;;;;9.13;4.03;;;;;;;;;;5072298;28;20226;-86
2024/01/07 05:36:25;;;;;;;5.77;3.93;;;;;;;;;;5072936;28;20198;-87
2024/01/07 05:38:52;;;;;;;9.23;5.43;;;;;;;;;;5073466;28;20206;-86
2024/01/07 05:41:20;;;;;;;6.43;3.67;;;;;;;;;;5072904;28;20290;-86
2024/01/07 05:43:49;;;;;;;9.60;3.97;;;;;;;;;;5071704;28;20245;-86
2024/01/07 05:46:16;;;;;;;4.13;3.67;;;;;;;;;;5072873;28;20610;-86
2024/01/07 05:48:47;;;;;;;6.43;3.70;;;;;;;;;;5072110;28;20198;-86
2024/01/07 05:51:15;;;;;;;5.43;4.17;;;;;;;;;;5072448;28;20201;-86
2024/01/07 05:53:43;;;;;;;7.43;3.73;;;;;;;;;;5072128;28;20230;-86
2024/01/07 05:56:11;;;;;;;3.97;3.67;;;;;;;;;;5072235;28;20206;-86
2024/01/07 05:58:38;;;;;;;7.00;3.53;;;;;;;;;;5072364;28;20229;-86
2024/01/07 06:01:07;;;;;;;4.00;3.63;;;;;;;;;;5072517;28;20599;-86
2024/01/07 06:03:35;;;;;;;4.07;3.30;;;;;;;;;;5073907;28;20645;-86
2024/01/07 06:06:05;;;;;;;3.20;2.93;;;;;;;;;;5077977;28;20613;-86
2024/01/07 06:08:32;;;;;;;3.87;3.57;;;;;;;;;;5076607;28;20218;-86
2024/01/07 06:11:00;;;;;;;7.63;3.60;;;;;;;;;;5077116;28;20565;-86
2024/01/07 06:13:27;;;;;;;8.77;4.07;;;;;;;;;;5076612;28;20289;-86
2024/01/07 06:15:54;;;;;;;4.00;3.60;;;;;;;;;;5092626;28;20219;-85
2024/01/07 06:18:22;;;;;;;4.37;3.97;;;;;;;;;;5092913;28;20299;-86
2024/01/07 06:20:51;;;;;;;6.80;4.47;;;;;;;;;;5095044;28;20198;-86
2024/01/07 06:23:20;;;;;;;4.50;4.10;;;;;;;;;;5082721;28;20202;-86
2024/01/07 06:25:47;;;;;;;3.90;3.10;;;;;;;;;;5095846;28;20206;-84
2024/01/07 06:28:14;;;;;;;2.83;2.60;;;;;;;;;;5096963;28;20201;-86
2024/01/07 06:30:41;;;;;;;2.97;2.77;;;;;;;;;;5096231;28;20202;-86
2024/01/07 06:33:17;;;;;;;5.27;3.30;;;;;;;;;;5101456;28;20228;-85
2024/01/07 06:35:49;;;;;;;6.60;3.93;;;;;;;;;;5097099;28;20243;-86
2024/01/07 06:38:16;;;;;;;4.10;3.53;;;;;;;;;;5097471;28;20233;-86
2024/01/07 06:40:46;;;;;;;7.70;4.30;;;;;;;;;;5096329;28;20204;-86
2024/01/07 06:43:14;;;;;;;4.30;3.90;;;;;;;;;;5096232;28;20197;-85
2024/01/07 06:45:43;;;;;;;4.27;3.60;;;;;;;;;;5095369;28;20198;-85
2024/01/07 06:48:11;;;;;;;7.37;5.33;;;;;;;;;;5095549;28;20616;-85
2024/01/07 06:50:39;;;;;;;4.40;3.80;;;;;;;;;;5096419;28;20551;-85
2024/01/07 06:53:06;;;;;;;9.00;5.20;;;;;;;;;;5095031;28;20245;-87
2024/01/07 06:55:35;;;;;;;8.70;4.03;;;;;;;;;;5096168;28;20205;-86
2024/01/07 06:58:11;;;;;;;5.67;4.13;;;;;;;;;;5095505;28;20205;-86
2024/01/07 07:00:47;;;;;;;10.63;4.20;;;;;;;;;;5095455;28;20548;-86
2024/01/07 07:03:15;;;;;;;5.60;4.40;;;;;;;;;;5094319;28;20199;-86
2024/01/07 07:05:48;;;;;;;4.47;3.67;;;;;;;;;;5094578;28;20204;-86
2024/01/07 07:08:16;;;;;;;4.37;3.77;;;;;;;;;;5096419;28;20225;-85
2024/01/07 07:10:43;;;;;;;5.60;3.70;;;;;;;;;;5095435;28;20201;-87
2024/01/07 07:13:16;;;;;;;4.43;4.03;;;;;;;;;;5095195;28;20710;-84
2024/01/07 07:15:44;;;;;;;5.23;4.73;;;;;;;;;;5097101;28;20210;-86
2024/01/07 07:18:12;;;;;;;5.60;3.90;;;;;;;;;;5100292;28;20725;-85
2024/01/07 07:20:42;;;;;;;9.43;5.27;;;;;;;;;;5098357;28;20554;-85
2024/01/07 07:23:10;;;;;;;5.73;4.30;;;;;;;;;;5097318;28;20208;-85
2024/01/07 07:25:38;;;;;;;11.07;4.87;;;;;;;;;;5097512;28;20205;-85
2024/01/07 07:28:09;;;;;;;8.50;5.43;;;;;;;;;;5087705;28;20228;-86
2024/01/07 07:30:38;;;;;;;7.43;5.73;;;;;;;;;;5095054;28;20194;-86
2024/01/07 07:33:21;;;;;;;7.83;5.37;;;;;;;;;;5097772;28;20247;-85
2024/01/07 07:35:49;;;;;;;13.33;8.60;;;;;;;;;;5102680;28;20193;-85
2024/01/07 07:38:16;;;;;;;13.27;8.63;;;;;;;;;;5095957;28;20237;-85
2024/01/07 07:40:44;;;;;;;11.10;7.00;;;;;;;;;;5098140;28;20194;-85
2024/01/07 07:43:14;;;;;;;10.70;6.80;;;;;;;;;;5109329;28;20226;-84
2024/01/07 07:45:44;;;;;;;11.60;6.60;;;;;;;;;;5105619;28;20222;-85
2024/01/07 07:48:14;;;;;;;8.30;6.00;;;;;;;;;;5097873;28;20226;-86
2024/01/07 07:50:42;;;;;;;9.43;5.77;;;;;;;;;;5101017;28;20255;-84
2024/01/07 07:53:12;;;;;;;9.00;6.10;;;;;;;;;;5102882;28;20222;-84
2024/01/07 07:55:43;;;;;;;6.17;5.10;;;;;;;;;;5102738;28;20190;-84
2024/01/07 07:58:10;;;;;;;10.90;5.57;;;;;;;;;;5103569;28;20255;-83
2024/01/07 08:00:40;;;;;;;10.03;5.30;;;;;;;;;;5106633;28;20258;-86
2024/01/07 08:03:10;;;;;;;9.50;7.03;;;;;;;;;;5106308;28;20237;-84
2024/01/07 08:05:38;;;;;;;10.03;6.13;;;;;;;;;;5108171;28;20271;-84
2024/01/07 08:08:06;;;;;;;8.47;6.13;;;;;;;;;;5107533;28;20276;-84
2024/01/07 08:10:35;;;;;;;8.60;6.03;;;;;;;;;;5108298;28;20209;-85
2024/01/07 08:13:03;;;;;;;7.27;5.07;;;;;;;;;;5108425;28;20255;-84
2024/01/07 08:15:32;;;;;;;6.43;5.13;;;;;;;;;;5102170;28;20214;-84
2024/01/07 08:18:05;;;;;;;6.97;5.27;;;;;;;;;;5101038;28;20198;-84
2024/01/07 08:20:36;;;;;;;6.37;5.07;;;;;;;;;;5095555;28;20672;-84
2024/01/07 08:23:07;;;;;;;5.23;4.50;;;;;;;;;;5096693;28;20204;-85
2024/01/07 08:25:35;;;;;;;7.53;5.30;;;;;;;;;;5095734;28;20628;-85
2024/01/07 08:28:10;;;;;;;12.73;5.43;;;;;;;;;;5093601;28;20354;-85
2024/01/07 08:30:38;;;;;;;6.03;4.30;;;;;;;;;;5094447;28;20229;-86
2024/01/07 08:33:06;;;;;;;8.13;5.47;;;;;;;;;;5093088;28;20220;-85
2024/01/07 08:35:38;;;;;;;9.33;4.80;;;;;;;;;;5095894;28;20201;-86
2024/01/07 08:40:52;;;;;;;5.47;4.97;;;;;;;;;;5080210;28;20211;-85
2024/01/07 08:43:24;;;;;;;4.73;4.27;;;;;;;;;;5089271;28;20201;-84
2024/01/07 08:45:52;;;;;;;5.03;4.20;;;;;;;;;;5086609;28;20694;-86
2024/01/07 08:48:20;;;;;;;4.33;3.83;;;;;;;;;;5097922;28;20279;-85
2024/01/07 08:50:50;;;;;;;6.77;5.43;;;;;;;;;;5095092;28;20314;-85
2024/01/07 08:53:18;;;;;;;4.07;3.23;;;;;;;;;;5099747;28;20209;-85
2024/01/07 08:55:50;;;;;;;4.17;3.87;;;;;;;;;;5098102;28;20620;-85
2024/01/07 08:58:23;;;;;;;4.20;3.77;;;;;;;;;;5098710;28;20662;-85
2024/01/07 09:00:51;;;;;;;5.93;3.60;;;;;;;;;;5105034;28;20217;-86
2024/01/07 09:03:19;;;;;;;4.20;3.80;;;;;;;;;;5111151;28;20253;-86
2024/01/07 09:05:47;;;;;;;4.73;3.30;;;;;;;;;;5095222;28;20668;-85
2024/01/07 09:08:22;;;;;;;4.77;3.47;;;;;;;;;;5092441;28;20228;-85
2024/01/07 09:10:52;;;;;;;3.77;3.37;;;;;;;;;;5093558;28;20203;-85
2024/01/07 09:13:25;;;;;;;3.30;3.10;;;;;;;;;;5096860;28;20259;-86
2024/01/07 09:15:54;;;;;;;3.43;3.13;;;;;;;;;;5094850;28;20727;-86
2024/01/07 09:18:21;;;;;;;4.97;3.90;;;;;;;;;;5076510;28;20231;-87
2024/01/07 09:20:49;;;;;;;5.20;3.67;;;;;;;;;;5072248;28;20272;-87
2024/01/07 09:23:18;;;;;;;3.80;3.47;;;;;;;;;;5092002;28;20238;-86
2024/01/07 09:25:47;;;;;;;4.07;3.67;;;;;;;;;;5094143;28;20220;-87
2024/01/07 09:28:19;;;;;;;3.80;3.50;;;;;;;;;;5092738;28;20230;-87
2024/01/07 09:30:50;;;;;;;3.50;3.30;;;;;;;;;;5092720;28;20734;-86
2024/01/07 09:33:19;;;;;;;5.97;3.88;;;;;;;;;;5091470;28;20807;-85
2024/01/07 09:35:47;;;;;;;3.83;3.47;;;;;;;;;;5092017;28;20878;-86
2024/01/07 09:38:38;;;;;;;4.45;3.83;;;;;;;;;;5090922;28;20226;-86
2024/01/07 09:41:07;;;;;;;4.13;3.83;;;;;;;;;;5086173;28;20248;-87
2024/01/07 09:43:40;;;;;;;4.30;3.90;;;;;;;;;;5095139;28;20222;-86
2024/01/07 09:46:09;;;;;;;3.92;3.58;;;;;;;;;;5106384;28;20215;-86
2024/01/07 09:48:38;;;;;;;4.68;4.28;;;;;;;;;;5063746;28;20223;-84
2024/01/07 09:51:10;;;;;;;4.05;3.75;;;;;;;;;;5070847;28;20227;-85
2024/01/07 09:53:39;;;;;;;3.25;3.00;;;;;;;;;;5071813;28;20224;-85
2024/01/07 09:56:13;;;;;;;5.18;3.72;;;;;;;;;;5083784;28;20224;-87
2024/01/07 09:58:47;;;;;;;4.93;3.20;;;;;;;;;;5086370;28;20216;-86
2024/01/07 10:01:19;;;;;;;3.63;3.42;;;;;;;;;;5086261;28;20261;-87
2024/01/07 10:03:46;;;;;;;5.10;3.67;;;;;;;;;;5092601;28;20225;-86
2024/01/07 10:06:25;;;;;;;4.95;4.40;;;;;;;;;;5090796;28;20260;-85
2024/01/07 10:08:52;;;;;;;3.85;3.65;;;;;;;;;;5073852;28;20224;-85
2024/01/07 10:11:22;;;;;;;4.40;3.58;;;;;;;;;;5071438;28;20228;-87
2024/01/07 10:13:52;;;;;;;3.67;3.10;;;;;;;;;;5088456;28;20248;-86
2024/01/07 10:16:19;;;;;;;4.70;3.30;;;;;;;;;;5087898;28;20426;-85
2024/01/07 10:18:48;;;;;;;2.83;1.50;;;;;;;;;;5091731;28;20285;-88
2024/01/07 10:21:19;;;;;;;1.03;0.97;;;;;;;;;;5059819;28;20227;-85
2024/01/07 10:23:47;;;;;;;3.50;3.20;;;;;;;;;;5072635;28;20230;-85
2024/01/07 10:26:15;;;;;;;5.63;2.83;;;;;;;;;;5073073;28;20500;-85
2024/01/07 10:28:45;;;;;;;3.20;2.73;;;;;;;;;;5071160;28;20220;-85
2024/01/07 10:31:13;;;;;;;3.23;3.03;;;;;;;;;;5070424;28;20230;-85
2024/01/07 10:33:42;;;;;;;4.27;2.70;;;;;;;;;;5073052;28;20229;-85
2024/01/07 10:36:12;;;;;;;5.90;4.13;;;;;;;;;;5071477;28;20225;-85
2024/01/07 10:38:41;;;;;;;7.23;3.87;;;;;;;;;;5086815;28;20225;-84
2024/01/07 10:41:10;;;;;;;5.33;4.23;;;;;;;;;;5084559;28;20218;-85
2024/01/07 10:43:40;;;;;;;4.13;3.73;;;;;;;;;;5079181;28;20238;-86
2024/01/07 10:46:11;;;;;;;3.63;3.23;;;;;;;;;;5074541;28;20224;-85
2024/01/07 10:48:40;;;;;;;4.57;4.17;;;;;;;;;;5077507;28;20228;-85
2024/01/07 10:51:10;;;;;;;8.77;4.47;;;;;;;;;;5073152;28;20614;-85
2024/01/07 10:53:41;;;;;;;5.90;3.80;;;;;;;;;;5074130;28;20320;-86
2024/01/07 10:56:10;;;;;;;4.70;3.90;;;;;;;;;;5075073;28;20228;-85
2024/01/07 10:58:38;;;;;;;11.33;4.37;;;;;;;;;;5074653;28;20229;-86
2024/01/07 11:01:06;;;;;;;5.67;3.87;;;;;;;;;;5073968;28;20317;-86
2024/01/07 11:03:39;;;;;;;4.97;4.57;;;;;;;;;;5074986;28;20252;-85
2024/01/07 11:06:10;;;;;;;5.60;4.70;;;;;;;;;;5073713;28;20279;-86
2024/01/07 11:08:40;;;;;;;8.80;4.17;;;;;;;;;;5055937;28;20677;-86
2024/01/07 11:11:11;;;;;;;3.90;3.60;;;;;;;;;;5074257;28;20230;-85
2024/01/07 11:13:40;;;;;;;9.07;3.77;;;;;;;;;;5073150;28;20682;-86
2024/01/07 11:16:10;;;;;;;4.67;3.50;;;;;;;;;;5072758;28;20235;-85
2024/01/07 11:18:49;;;;;;;3.23;2.97;;;;;;;;;;5074322;28;20736;-85
2024/01/07 11:21:24;;;;;;;5.23;3.47;;;;;;;;;;5073282;28;20320;-86
2024/01/07 11:23:53;;;;;;;3.43;3.13;;;;;;;;;;5073402;28;20712;-86
2024/01/07 11:26:22;;;;;;;4.87;3.60;;;;;;;;;;5072842;28;20281;-86
2024/01/07 11:28:51;;;;;;;8.43;3.70;;;;;;;;;;5073817;28;20215;-86
2024/01/07 11:31:19;;;;;;;3.30;3.10;;;;;;;;;;5074130;28;20305;-86
2024/01/07 11:33:52;;;;;;;6.53;4.20;;;;;;;;;;5072815;28;20243;-86
2024/01/07 11:36:22;;;;;;;14.17;3.70;;;;;;;;;;5073275;28;20279;-85
2024/01/07 11:38:50;;;;;;;8.10;3.43;;;;;;;;;;5056135;28;20238;-86
2024/01/07 11:41:20;;;;;;;13.87;5.30;;;;;;;;;;5073225;28;20296;-85
2024/01/07 11:43:58;;;;;;;3.63;3.33;;;;;;;;;;5073893;28;20267;-85
2024/01/07 11:46:27;;;;;;;5.87;2.83;;;;;;;;;;5076071;28;20234;-85
2024/01/07 11:49:01;;;;;;;4.07;3.17;;;;;;;;;;5072506;28;20289;-86
2024/01/07 11:51:30;;;;;;;4.13;3.50;;;;;;;;;;5072513;28;20286;-84
2024/01/07 11:53:58;;;;;;;13.27;3.97;;;;;;;;;;5073215;28;20672;-84
2024/01/07 11:56:26;;;;;;;2.83;2.63;;;;;;;;;;5072760;28;20702;-83
2024/01/07 11:58:57;;;;;;;6.47;3.80;;;;;;;;;;5071924;28;20556;-82
2024/01/07 12:01:26;;;;;;;3.57;2.93;;;;;;;;;;5073764;28;20211;-84
2024/01/07 12:03:53;;;;;;;4.37;3.63;;;;;;;;;;5072335;28;20239;-84
2024/01/07 12:06:24;;;;;;;10.63;3.60;;;;;;;;;;5072406;28;20341;-85
2024/01/07 12:08:56;;;;;;;3.93;3.63;;;;;;;;;;5072841;28;20715;-85
2024/01/07 12:11:25;;;;;;;7.67;3.30;;;;;;;;;;5071529;28;20313;-85
2024/01/07 12:13:52;;;;;;;3.40;3.10;;;;;;;;;;5071337;28;20234;-85
2024/01/07 12:16:20;;;;;;;3.20;2.83;;;;;;;;;;5074069;28;20319;-84
2024/01/07 12:18:52;;;;;;;6.27;3.43;;;;;;;;;;5072690;28;20215;-86
2024/01/07 12:21:24;;;;;;;4.13;2.60;;;;;;;;;;5073546;28;20223;-86
2024/01/07 12:23:56;;;;;;;3.23;3.03;;;;;;;;;;5071361;28;20227;-86
2024/01/07 12:26:33;;;;;;;3.60;3.17;;;;;;;;;;5073430;28;20224;-86
2024/01/07 12:29:03;;;;;;;2.40;2.30;;;;;;;;;;5073234;28;20234;-86
2024/01/07 12:31:33;;;;;;;3.47;2.40;;;;;;;;;;5075742;28;20784;-85
2024/01/07 12:34:02;;;;;;;2.90;2.70;;;;;;;;;;5073095;28;20230;-86
2024/01/07 12:36:36;;;;;;;2.83;2.60;;;;;;;;;;5073497;28;20230;-86
2024/01/07 12:39:05;;;;;;;3.63;2.60;;;;;;;;;;5073790;28;20220;-87
2024/01/07 12:41:35;;;;;;;3.07;2.83;;;;;;;;;;5073147;28;20217;-86
2024/01/07 12:44:08;;;;;;;2.57;2.37;;;;;;;;;;5052455;28;20238;-86
2024/01/07 12:46:41;;;;;;;3.53;2.50;;;;;;;;;;5057592;28;20235;-85
2024/01/07 12:49:09;;;;;;;3.23;3.03;;;;;;;;;;5073130;28;20781;-86
2024/01/07 12:51:42;;;;;;;5.20;2.90;;;;;;;;;;5088667;28;20190;-86
2024/01/07 12:54:09;;;;;;;3.57;3.27;;;;;;;;;;5093804;28;20262;-86
2024/01/07 12:56:37;;;;;;;6.73;4.80;;;;;;;;;;5094370;28;20212;-85
2024/01/07 12:59:05;;;;;;;6.53;3.53;;;;;;;;;;5093837;28;20238;-86
2024/01/07 13:01:36;;;;;;;3.13;2.83;;;;;;;;;;5077572;28;20199;-85
2024/01/07 13:04:04;;;;;;;4.57;3.33;;;;;;;;;;5083738;28;20213;-86
2024/01/07 13:06:31;;;;;;;2.90;2.67;;;;;;;;;;5093586;28;20206;-86
2024/01/07 13:09:03;;;;;;;2.80;2.60;;;;;;;;;;5094220;28;20209;-86
2024/01/07 13:11:31;;;;;;;5.17;2.53;;;;;;;;;;5077375;28;20195;-87
2024/01/07 13:14:10;;;;;;;3.23;2.60;;;;;;;;;;5094301;28;20223;-86
2024/01/07 13:16:39;;;;;;;4.63;2.97;;;;;;;;;;5081804;28;20227;-86
2024/01/07 13:19:08;;;;;;;3.60;3.30;;;;;;;;;;5074456;28;20190;-86
2024/01/07 13:21:37;;;;;;;3.23;2.93;;;;;;;;;;5073973;28;20225;-86
2024/01/07 13:24:06;;;;;;;5.77;3.57;;;;;;;;;;5073894;28;20196;-85
2024/01/07 13:26:34;;;;;;;2.83;2.63;;;;;;;;;;5073853;28;20195;-86
2024/01/07 13:29:03;;;;;;;3.47;3.13;;;;;;;;;;5072830;28;20211;-86
2024/01/07 13:31:31;;;;;;;3.10;2.90;;;;;;;;;;5072772;28;20218;-86
2024/01/07 13:33:58;;;;;;;2.60;2.40;;;;;;;;;;5073552;28;20195;-87
2024/01/07 13:36:25;;;;;;;2.60;2.43;;;;;;;;;;5072775;28;20770;-86
2024/01/07 13:38:55;;;;;;;3.50;2.40;;;;;;;;;;5077295;28;20205;-86
2024/01/07 13:41:28;;;;;;;2.70;2.50;;;;;;;;;;5079189;28;20203;-85
2024/01/07 13:43:56;;;;;;;7.63;2.80;;;;;;;;;;5079017;28;20207;-87
2024/01/07 13:46:25;;;;;;;4.00;2.70;;;;;;;;;;5081656;28;20262;-86
2024/01/07 13:48:52;;;;;;;3.90;2.40;;;;;;;;;;5078243;28;20313;-86
2024/01/07 13:51:21;;;;;;;8.40;2.63;;;;;;;;;;5075086;28;20212;-85
2024/01/07 13:53:48;;;;;;;3.53;3.20;;;;;;;;;;5078598;28;20191;-85
2024/01/07 13:56:18;;;;;;;3.87;3.40;;;;;;;;;;5079829;28;20256;-86
2024/01/07 13:58:49;;;;;;;5.53;3.27;;;;;;;;;;5074223;28;20198;-86
2024/01/07 14:01:25;;;;;;;2.70;2.50;;;;;;;;;;5072825;28;20198;-87
2024/01/07 14:03:53;;;;;;;3.30;2.70;;;;;;;;;;5072380;28;20310;-86
2024/01/07 14:06:26;;;;;;;2.97;2.70;;;;;;;;;;5072991;28;20670;-86
2024/01/07 14:08:53;;;;;;;2.40;2.30;;;;;;;;;;5077148;28;20223;-86
2024/01/07 14:11:21;;;;;;;5.10;2.30;;;;;;;;;;5072089;28;20194;-86
2024/01/07 14:13:51;;;;;;;5.07;2.70;;;;;;;;;;5071998;28;20278;-85
2024/01/07 14:16:51;;;;;;;3.10;2.83;;;;;;;;;;5072717;28;20230;-86
2024/01/07 14:19:26;;;;;;;2.27;2.17;;;;;;;;;;5067672;28;20192;-86
2024/01/07 14:21:54;;;;;;;4.90;2.47;;;;;;;;;;5072726;28;20198;-87
2024/01/07 14:24:22;;;;;;;4.23;2.63;;;;;;;;;;5073115;28;20293;-86
2024/01/07 14:26:50;;;;;;;3.03;2.83;;;;;;;;;;5076065;28;20594;-87
2024/01/07 14:29:23;;;;;;;5.90;3.47;;;;;;;;;;5076426;28;20207;-86
2024/01/07 14:31:51;;;;;;;6.17;3.70;;;;;;;;;;5076215;28;20485;-85
2024/01/07 14:34:25;;;;;;;7.03;4.40;;;;;;;;;;5075593;28;20217;-85
2024/01/07 14:36:55;;;;;;;9.33;6.20;;;;;;;;;;5076389;28;20232;-86
2024/01/07 14:39:25;;;;;;;6.63;5.60;;;;;;;;;;5080459;28;20206;-86
2024/01/07 14:41:54;;;;;;;6.23;5.63;;;;;;;;;;5076522;28;20656;-85
2024/01/07 14:44:23;;;;;;;8.67;5.60;;;;;;;;;;5076567;28;20203;-86
2024/01/07 14:46:51;;;;;;;7.97;6.10;;;;;;;;;;5075790;28;20230;-86
2024/01/07 14:49:19;;;;;;;8.37;6.23;;;;;;;;;;5076492;28;20223;-87
2024/01/07 14:51:48;;;;;;;23.30;11.47;;;;;;;;;;5076089;28;20203;-87
2024/01/07 14:54:16;;;;;;;31.67;13.67;;;;;;;;;;5077788;28;20626;-86
2024/01/07 14:56:44;;;;;;;19.53;10.40;;;;;;;;;;5076204;28;20233;-85
2024/01/07 14:59:13;;;;;;;20.43;10.37;;;;;;;;;;5079288;28;20199;-87
2024/01/07 15:01:44;;;;;;;18.90;10.27;;;;;;;;;;5081313;28;20209;-84
2024/01/07 15:04:13;;;;;;;20.00;10.97;;;;;;;;;;5083420;28;20197;-85
2024/01/07 15:06:42;;;;;;;12.90;7.93;;;;;;;;;;5083729;28;20218;-85
2024/01/07 15:09:10;;;;;;;14.27;9.00;;;;;;;;;;5084954;28;20262;-84
2024/01/07 15:11:41;;;;;;;18.40;9.40;;;;;;;;;;5088408;28;20198;-86